Time,TemperatureF,DewpointF,PressureIn,WindDirection,WindDirectionDegrees,WindSpeedMPH,WindSpeedGustMPH,Humidity,HourlyPrecipIn,Conditions,Clouds,dailyrainin,SoftwareType,DateUTC
2014-12-22 00:22:00,67.0,65.0,30.03,SSE,150,8.0,8.0,93,-99.99,,,-99.99,,2014-12-22 05:22:00,
2014-12-22 00:42:00,67.0,65.0,30.03,SSE,150,8.0,8.0,93,-99.99,,,-99.99,,2014-12-22 05:42:00,
2014-12-22 00:52:00,68.0,66.0,30.03,SSE,160,9.0,9.0,93,-99.99,,,-99.99,,2014-12-22 05:52:00,
2014-12-22 01:22:00,68.0,66.0,30.02,SSE,160,14.0,15.0,95,-99.99,,,-99.99,,2014-12-22 06:22:00,
2014-12-22 01:42:00,68.0,67.0,30.01,South,170,11.0,13.0,95,-99.99,,,-99.99,,2014-12-22 06:42:00,
2014-12-22 01:52:00,68.0,66.0,30.01,South,170,9.0,10.0,95,-99.99,,,-99.99,,2014-12-22 06:52:00,
2014-12-22 02:22:00,67.0,66.0,30.00,SSE,160,10.0,11.0,96,-99.99,,,-99.99,,2014-12-22 07:22:00,
2014-12-22 02:52:00,68.0,67.0,29.99,SSE,150,8.0,10.0,96,-99.99,,,-99.99,,2014-12-22 07:52:00,
2014-12-22 03:21:00,68.0,67.0,29.98,SSE,160,10.0,11.0,96,-99.99,,,-99.99,,2014-12-22 08:21:00,
2014-12-22 03:52:00,67.0,66.0,29.99,SSE,150,7.0,8.0,96,-99.99,,,-99.99,,2014-12-22 08:52:00,
2014-12-22 04:11:00,67.0,66.0,29.98,SSE,150,9.0,10.0,96,-99.99,,,-99.99,,2014-12-22 09:11:00,
2014-12-22 04:22:00,67.0,66.0,29.96,SE,140,9.0,11.0,96,-99.99,,,-99.99,,2014-12-22 09:22:00,
2014-12-22 04:53:00,67.0,66.0,29.97,SSE,150,10.0,11.0,96,-99.99,,,-99.99,,2014-12-22 09:53:00,
2014-12-22 05:23:00,67.0,66.0,29.96,ESE,110,11.0,11.0,96,-99.99,,,-99.99,,2014-12-22 10:23:00,
2014-12-22 06:12:00,67.0,66.0,29.96,ESE,120,8.0,9.0,96,-99.99,,,-99.99,,2014-12-22 11:12:00,
2014-12-22 06:21:00,67.0,66.0,29.97,ESE,120,10.0,11.0,96,-99.99,,,-99.99,,2014-12-22 11:21:00,
2014-12-22 06:42:00,67.0,66.0,29.96,ESE,110,9.0,11.0,96,-99.99,,,-99.99,,2014-12-22 11:42:00,
2014-12-22 06:53:00,67.0,66.0,29.97,ESE,120,7.0,9.0,96,-99.99,,,-99.99,,2014-12-22 11:53:00,
2014-12-22 07:21:00,67.0,66.0,29.99,SSE,150,7.0,9.0,96,-99.99,,,-99.99,,2014-12-22 12:21:00,
2014-12-22 07:52:00,67.0,66.0,30.00,SE,130,6.0,7.0,96,-99.99,,,-99.99,,2014-12-22 12:52:00,
2014-12-22 08:11:00,67.0,66.0,30.00,SE,140,9.0,10.0,96,-99.99,,,-99.99,,2014-12-22 13:11:00,
2014-12-22 08:21:00,67.0,65.0,29.99,SE,140,8.0,8.0,96,-99.99,,,-99.99,,2014-12-22 13:21:00,
2014-12-22 08:52:00,66.0,65.0,30.00,SE,130,7.0,7.0,96,-99.99,,,-99.99,,2014-12-22 13:52:00,
2014-12-22 09:22:00,67.0,65.0,30.00,SE,140,8.0,9.0,96,-99.99,,,-99.99,,2014-12-22 14:22:00,
2014-12-22 09:52:00,68.0,67.0,30.01,SSE,160,7.0,8.0,95,-99.99,,,-99.99,,2014-12-22 14:52:00,
2014-12-22 10:11:00,69.0,67.0,30.01,SSE,160,8.0,9.0,93,-99.99,,,-99.99,,2014-12-22 15:11:00,
2014-12-22 10:22:00,70.0,67.0,30.01,South,180,9.0,11.0,91,-99.99,,,-99.99,,2014-12-22 15:22:00,
2014-12-22 10:44:00,71.0,68.0,30.01,South,180,11.0,14.0,88,-99.99,,,-99.99,,2014-12-22 15:44:00,
2014-12-22 10:54:00,71.0,67.0,30.01,South,180,13.0,15.0,87,-99.99,,,-99.99,,2014-12-22 15:54:00,
2014-12-22 11:13:00,71.0,67.0,30.01,South,190,10.0,13.0,88,-99.99,,,-99.99,,2014-12-22 16:13:00,
2014-12-22 11:23:00,71.0,67.0,30.00,South,180,13.0,14.0,88,-99.99,,,-99.99,,2014-12-22 16:23:00,
2014-12-22 11:43:00,71.0,67.0,30.00,South,180,11.0,13.0,89,-99.99,,,-99.99,,2014-12-22 16:43:00,
2014-12-22 11:53:00,71.0,68.0,30.00,South,180,8.0,9.0,90,-99.99,,,-99.99,,2014-12-22 16:53:00,
2014-12-22 12:22:00,71.0,68.0,29.98,SSW,210,14.0,16.0,90,-99.99,,,-99.99,,2014-12-22 17:22:00,
2014-12-22 12:52:00,72.0,68.0,29.97,SSW,200,18.0,21.0,88,-99.99,,,-99.99,,2014-12-22 17:52:00,
2014-12-22 13:02:00,72.0,68.0,29.97,SSW,200,18.0,21.0,88,-99.99,,,-99.99,,2014-12-22 18:02:00,
2014-12-22 13:22:00,72.0,68.0,29.94,SSW,200,20.0,23.0,88,-99.99,,,-99.99,,2014-12-22 18:22:00,
2014-12-22 13:53:00,72.0,69.0,29.93,SSW,200,14.0,16.0,88,-99.99,,,-99.99,,2014-12-22 18:53:00,
2014-12-22 14:12:00,73.0,69.0,29.92,SSW,200,14.0,15.0,87,-99.99,,,-99.99,,2014-12-22 19:12:00,
2014-12-22 14:22:00,73.0,69.0,29.92,SW,220,13.0,15.0,87,-99.99,,,-99.99,,2014-12-22 19:22:00,
2014-12-22 14:42:00,73.0,69.0,29.92,SW,220,14.0,16.0,86,-99.99,,,-99.99,,2014-12-22 19:42:00,
2014-12-22 14:52:00,73.0,69.0,29.92,SW,230,11.0,15.0,86,-99.99,,,-99.99,,2014-12-22 19:52:00,
2014-12-22 15:12:00,72.0,68.0,29.92,SSW,210,13.0,14.0,88,-99.99,,,-99.99,,2014-12-22 20:12:00,
2014-12-22 15:53:00,72.0,69.0,29.91,SSW,200,15.0,17.0,88,-99.99,,,-99.99,,2014-12-22 20:53:00,
2014-12-22 16:22:00,71.0,68.0,29.91,SSW,200,14.0,16.0,90,-99.99,,,-99.99,,2014-12-22 21:22:00,
2014-12-22 16:53:00,71.0,68.0,29.91,SSW,200,13.0,15.0,90,-99.99,,,-99.99,,2014-12-22 21:53:00,
2014-12-22 17:23:00,71.0,68.0,29.92,SSW,200,14.0,15.0,90,-99.99,,,-99.99,,2014-12-22 22:23:00,
2014-12-22 17:52:00,71.0,68.0,29.92,SSW,210,13.0,14.0,91,-99.99,,,-99.99,,2014-12-22 22:52:00,
2014-12-22 18:12:00,71.0,69.0,29.93,SSW,200,11.0,14.0,92,-99.99,,,-99.99,,2014-12-22 23:12:00,
2014-12-22 18:22:00,71.0,68.0,29.93,SSW,200,13.0,14.0,92,-99.99,,,-99.99,,2014-12-22 23:22:00,
2014-12-22 18:53:00,70.0,68.0,29.92,South,190,11.0,13.0,92,-99.99,,,-99.99,,2014-12-22 23:53:00,
2014-12-22 19:22:00,-999.0,-99.9,29.93,South,180,8.0,10.0,-999,-99.99,,,-99.99,,2014-12-23 00:22:00,
2014-12-22 19:52:00,70.0,68.0,29.93,South,190,9.0,10.0,92,-99.99,,,-99.99,,2014-12-23 00:52:00,
2014-12-22 20:12:00,70.0,68.0,29.93,SSW,200,7.0,8.0,92,-99.99,,,-99.99,,2014-12-23 01:12:00,
2014-12-22 20:21:00,70.0,68.0,29.94,SSW,200,7.0,8.0,94,-99.99,,,-99.99,,2014-12-23 01:21:00,
2014-12-22 20:52:00,-999.0,-99.9,-100.00,South,170,7.0,9.0,-999,-99.99,,,-99.99,,2014-12-23 01:52:00,
2014-12-22 21:21:00,69.0,68.0,29.95,South,190,8.0,8.0,95,-99.99,,,-99.99,,2014-12-23 02:21:00,
2014-12-22 21:42:00,69.0,68.0,29.95,South,180,7.0,8.0,95,-99.99,,,-99.99,,2014-12-23 02:42:00,
2014-12-22 21:52:00,69.0,68.0,29.95,South,180,6.0,6.0,96,-99.99,,,-99.99,,2014-12-23 02:52:00,
2014-12-22 22:21:00,70.0,69.0,29.96,South,180,7.0,7.0,96,-99.99,,,-99.99,,2014-12-23 03:21:00,
2014-12-22 22:53:00,69.0,68.0,29.95,SSE,160,8.0,9.0,96,-99.99,,,-99.99,,2014-12-23 03:53:00,
2014-12-22 23:23:00,69.0,68.0,29.96,SSE,160,5.0,6.0,96,-99.99,,,-99.99,,2014-12-23 04:23:00,